Blanca, Colorado
Current Conditions -  °F | °C
As of 11:52 PM on Saturday 22 Nov 2014 (Local Time) from KALS Reporting Station
Clear Clear  
Wind Chill: 13°   Ceiling: Unl
Heat Index: 21°   Visibility: 10mi
Dew Point: 14°   Wind: 6mph
Humidity: 74%   Direction: 30°NNE
Pressure: 29.75"   Gusts: NA
Location:  37.44°N, 105.52°W
Report Text: KALS 230652Z AUTO 03005KT 10SM CLR M06/M10 A2975 RMK AO2 SLP072 T10611100 401001156
Loading
Personal Weather Stations






























Interactive Weather Map New forecast layout! Learn more

10-Day Weather Forecast

Advertisements
Track Severe Weather on mobile